sensor_id;sensor_type;location;lat;lon;timestamp;temperature;humidity
22714;DHT22;11524;50.846;4.326;2023-06-26T00:02:12;29.80;48.40
22714;DHT22;11524;50.846;4.326;2023-06-26T00:04:38;29.80;48.40
22714;DHT22;11524;50.846;4.326;2023-06-26T00:07:06;29.80;48.50
22714;DHT22;11524;50.846;4.326;2023-06-26T00:09:32;29.80;48.60
22714;DHT22;11524;50.846;4.326;2023-06-26T00:11:58;29.80;48.50
22714;DHT22;11524;50.846;4.326;2023-06-26T00:14:24;29.80;48.50
22714;DHT22;11524;50.846;4.326;2023-06-26T00:16:51;29.80;48.60
22714;DHT22;11524;50.846;4.326;2023-06-26T00:19:17;29.80;48.60
22714;DHT22;11524;50.846;4.326;2023-06-26T00:21:42;29.80;48.50
22714;DHT22;11524;50.846;4.326;2023-06-26T00:24:14;29.70;48.40
22714;DHT22;11524;50.846;4.326;2023-06-26T00:26:40;29.70;48.30
22714;DHT22;11524;50.846;4.326;2023-06-26T00:29:06;29.80;48.40
22714;DHT22;11524;50.846;4.326;2023-06-26T00:31:31;29.70;48.30
22714;DHT22;11524;50.846;4.326;2023-06-26T00:33:57;29.70;48.20
22714;DHT22;11524;50.846;4.326;2023-06-26T00:36:22;29.70;48.20
22714;DHT22;11524;50.846;4.326;2023-06-26T00:38:49;29.60;48.30
22714;DHT22;11524;50.846;4.326;2023-06-26T00:41:15;29.60;48.40
22714;DHT22;11524;50.846;4.326;2023-06-26T00:43:41;29.60;48.40
22714;DHT22;11524;50.846;4.326;2023-06-26T00:46:10;29.60;48.30
22714;DHT22;11524;50.846;4.326;2023-06-26T00:48:36;29.50;48.10
22714;DHT22;11524;50.846;4.326;2023-06-26T00:51:03;29.50;48.10
22714;DHT22;11524;50.846;4.326;2023-06-26T00:53:28;29.50;48.10
22714;DHT22;11524;50.846;4.326;2023-06-26T00:55:55;29.50;48.10
22714;DHT22;11524;50.846;4.326;2023-06-26T00:58:24;29.50;48.00
22714;DHT22;11524;50.846;4.326;2023-06-26T01:00:54;29.50;47.90
22714;DHT22;11524;50.846;4.326;2023-06-26T01:03:24;29.50;47.80
22714;DHT22;11524;50.846;4.326;2023-06-26T01:05:51;29.50;47.70
22714;DHT22;11524;50.846;4.326;2023-06-26T01:08:18;29.50;47.70
22714;DHT22;11524;50.846;4.326;2023-06-26T01:10:44;29.50;47.60
22714;DHT22;11524;50.846;4.326;2023-06-26T01:13:10;29.40;47.50
22714;DHT22;11524;50.846;4.326;2023-06-26T01:15:36;29.50;47.50
22714;DHT22;11524;50.846;4.326;2023-06-26T01:18:02;29.50;47.40
22714;DHT22;11524;50.846;4.326;2023-06-26T01:20:39;29.40;47.30
22714;DHT22;11524;50.846;4.326;2023-06-26T01:28:34;29.40;47.10
22714;DHT22;11524;50.846;4.326;2023-06-26T01:31:02;29.40;47.00
22714;DHT22;11524;50.846;4.326;2023-06-26T01:33:28;29.40;47.00
22714;DHT22;11524;50.846;4.326;2023-06-26T01:35:55;29.40;47.00
22714;DHT22;11524;50.846;4.326;2023-06-26T01:38:21;29.40;46.90
22714;DHT22;11524;50.846;4.326;2023-06-26T01:40:48;29.30;46.90
22714;DHT22;11524;50.846;4.326;2023-06-26T01:43:24;29.30;46.80
22714;DHT22;11524;50.846;4.326;2023-06-26T01:45:55;29.30;46.90
22714;DHT22;11524;50.846;4.326;2023-06-26T01:48:26;29.30;46.90
22714;DHT22;11524;50.846;4.326;2023-06-26T01:50:53;29.30;46.80
22714;DHT22;11524;50.846;4.326;2023-06-26T01:53:22;29.30;46.80
22714;DHT22;11524;50.846;4.326;2023-06-26T01:55:53;29.20;46.90
22714;DHT22;11524;50.846;4.326;2023-06-26T01:58:23;29.20;47.10
22714;DHT22;11524;50.846;4.326;2023-06-26T02:00:49;29.20;47.20
22714;DHT22;11524;50.846;4.326;2023-06-26T02:03:15;29.10;47.30
22714;DHT22;11524;50.846;4.326;2023-06-26T02:05:40;29.10;47.30
22714;DHT22;11524;50.846;4.326;2023-06-26T02:08:08;29.10;47.30
22714;DHT22;11524;50.846;4.326;2023-06-26T02:10:34;29.10;47.40
22714;DHT22;11524;50.846;4.326;2023-06-26T02:13:00;29.00;47.40
22714;DHT22;11524;50.846;4.326;2023-06-26T02:15:26;29.00;47.70
22714;DHT22;11524;50.846;4.326;2023-06-26T02:17:52;29.00;47.80
22714;DHT22;11524;50.846;4.326;2023-06-26T02:20:17;28.90;47.70
22714;DHT22;11524;50.846;4.326;2023-06-26T02:22:43;28.90;47.80
22714;DHT22;11524;50.846;4.326;2023-06-26T02:25:09;28.90;47.90
22714;DHT22;11524;50.846;4.326;2023-06-26T02:27:35;28.90;48.10
22714;DHT22;11524;50.846;4.326;2023-06-26T02:30:01;28.90;48.20
22714;DHT22;11524;50.846;4.326;2023-06-26T02:32:27;28.90;48.20
22714;DHT22;11524;50.846;4.326;2023-06-26T02:34:53;28.90;48.30
22714;DHT22;11524;50.846;4.326;2023-06-26T02:37:19;28.90;48.20
22714;DHT22;11524;50.846;4.326;2023-06-26T02:39:45;28.90;48.20
22714;DHT22;11524;50.846;4.326;2023-06-26T02:42:11;28.90;48.30
22714;DHT22;11524;50.846;4.326;2023-06-26T02:44:36;28.90;48.10
22714;DHT22;11524;50.846;4.326;2023-06-26T02:47:02;28.80;48.00
22714;DHT22;11524;50.846;4.326;2023-06-26T02:49:28;28.80;48.00
22714;DHT22;11524;50.846;4.326;2023-06-26T02:51:54;28.90;48.00
22714;DHT22;11524;50.846;4.326;2023-06-26T02:54:20;28.90;47.90
22714;DHT22;11524;50.846;4.326;2023-06-26T02:56:45;28.90;47.90
22714;DHT22;11524;50.846;4.326;2023-06-26T02:59:11;28.90;47.80
22714;DHT22;11524;50.846;4.326;2023-06-26T03:01:37;28.90;47.80
22714;DHT22;11524;50.846;4.326;2023-06-26T03:04:02;28.80;47.90
22714;DHT22;11524;50.846;4.326;2023-06-26T03:06:28;28.80;48.00
22714;DHT22;11524;50.846;4.326;2023-06-26T03:08:54;28.80;48.10
22714;DHT22;11524;50.846;4.326;2023-06-26T03:11:19;28.70;48.10
22714;DHT22;11524;50.846;4.326;2023-06-26T03:13:45;28.70;48.30
22714;DHT22;11524;50.846;4.326;2023-06-26T03:16:10;28.60;48.40
22714;DHT22;11524;50.846;4.326;2023-06-26T03:18:36;28.60;48.40
22714;DHT22;11524;50.846;4.326;2023-06-26T03:21:02;28.60;48.40
22714;DHT22;11524;50.846;4.326;2023-06-26T03:23:28;28.50;48.60
22714;DHT22;11524;50.846;4.326;2023-06-26T03:25:54;28.50;48.70
22714;DHT22;11524;50.846;4.326;2023-06-26T03:28:19;28.50;48.80
22714;DHT22;11524;50.846;4.326;2023-06-26T03:30:45;28.50;49.00
22714;DHT22;11524;50.846;4.326;2023-06-26T03:33:11;28.50;48.80
22714;DHT22;11524;50.846;4.326;2023-06-26T03:35:37;28.50;48.80
22714;DHT22;11524;50.846;4.326;2023-06-26T03:38:04;28.50;48.80
22714;DHT22;11524;50.846;4.326;2023-06-26T03:40:29;28.40;48.70
22714;DHT22;11524;50.846;4.326;2023-06-26T03:42:55;28.40;48.80
22714;DHT22;11524;50.846;4.326;2023-06-26T03:45:20;28.40;48.70
22714;DHT22;11524;50.846;4.326;2023-06-26T03:47:46;28.40;48.80
22714;DHT22;11524;50.846;4.326;2023-06-26T03:50:15;28.40;48.90
22714;DHT22;11524;50.846;4.326;2023-06-26T03:52:40;28.40;49.00
22714;DHT22;11524;50.846;4.326;2023-06-26T03:55:06;28.40;49.10
22714;DHT22;11524;50.846;4.326;2023-06-26T03:57:32;28.40;49.20
22714;DHT22;11524;50.846;4.326;2023-06-26T04:00:00;28.40;49.20
22714;DHT22;11524;50.846;4.326;2023-06-26T04:02:26;28.40;49.10
22714;DHT22;11524;50.846;4.326;2023-06-26T04:04:51;28.40;49.10
22714;DHT22;11524;50.846;4.326;2023-06-26T04:07:18;28.40;49.10
22714;DHT22;11524;50.846;4.326;2023-06-26T04:09:44;28.40;49.20
22714;DHT22;11524;50.846;4.326;2023-06-26T04:12:09;28.40;49.10
22714;DHT22;11524;50.846;4.326;2023-06-26T04:14:35;28.30;49.10
22714;DHT22;11524;50.846;4.326;2023-06-26T04:17:01;28.30;49.10
22714;DHT22;11524;50.846;4.326;2023-06-26T04:19:29;28.30;49.20
22714;DHT22;11524;50.846;4.326;2023-06-26T04:21:54;28.30;49.20
22714;DHT22;11524;50.846;4.326;2023-06-26T04:24:20;28.30;49.20
22714;DHT22;11524;50.846;4.326;2023-06-26T04:26:45;28.30;49.10
22714;DHT22;11524;50.846;4.326;2023-06-26T04:29:11;28.30;49.20
22714;DHT22;11524;50.846;4.326;2023-06-26T04:31:37;28.30;49.20
22714;DHT22;11524;50.846;4.326;2023-06-26T04:34:04;28.40;49.10
22714;DHT22;11524;50.846;4.326;2023-06-26T04:36:29;28.40;49.00
22714;DHT22;11524;50.846;4.326;2023-06-26T04:38:56;28.40;48.90
22714;DHT22;11524;50.846;4.326;2023-06-26T04:41:22;28.40;48.90
22714;DHT22;11524;50.846;4.326;2023-06-26T04:43:48;28.40;48.90
22714;DHT22;11524;50.846;4.326;2023-06-26T04:46:13;28.40;48.80
22714;DHT22;11524;50.846;4.326;2023-06-26T04:48:39;28.30;48.80
22714;DHT22;11524;50.846;4.326;2023-06-26T04:51:05;28.30;48.60
22714;DHT22;11524;50.846;4.326;2023-06-26T04:53:30;28.30;48.70
22714;DHT22;11524;50.846;4.326;2023-06-26T04:55:56;28.30;48.60
22714;DHT22;11524;50.846;4.326;2023-06-26T04:58:22;28.30;48.50
22714;DHT22;11524;50.846;4.326;2023-06-26T05:00:48;28.30;48.40
22714;DHT22;11524;50.846;4.326;2023-06-26T05:03:16;28.30;48.30
22714;DHT22;11524;50.846;4.326;2023-06-26T05:05:45;28.30;48.30
22714;DHT22;11524;50.846;4.326;2023-06-26T05:08:15;28.30;48.20
22714;DHT22;11524;50.846;4.326;2023-06-26T05:10:41;28.30;48.20
22714;DHT22;11524;50.846;4.326;2023-06-26T05:13:06;28.30;48.30
22714;DHT22;11524;50.846;4.326;2023-06-26T05:15:32;28.30;48.10
22714;DHT22;11524;50.846;4.326;2023-06-26T05:17:58;28.30;48.10
22714;DHT22;11524;50.846;4.326;2023-06-26T05:20:23;28.30;47.80
22714;DHT22;11524;50.846;4.326;2023-06-26T05:22:49;28.40;47.40
22714;DHT22;11524;50.846;4.326;2023-06-26T05:25:15;28.40;46.50
22714;DHT22;11524;50.846;4.326;2023-06-26T05:27:41;28.60;46.40
22714;DHT22;11524;50.846;4.326;2023-06-26T05:30:07;28.70;46.10
22714;DHT22;11524;50.846;4.326;2023-06-26T05:32:34;28.80;45.70
22714;DHT22;11524;50.846;4.326;2023-06-26T05:35:01;28.80;45.20
22714;DHT22;11524;50.846;4.326;2023-06-26T05:37:31;29.00;43.90
22714;DHT22;11524;50.846;4.326;2023-06-26T05:39:57;29.10;43.20
22714;DHT22;11524;50.846;4.326;2023-06-26T05:42:22;29.10;42.90
22714;DHT22;11524;50.846;4.326;2023-06-26T05:44:51;29.10;42.40
22714;DHT22;11524;50.846;4.326;2023-06-26T05:47:16;29.20;42.20
22714;DHT22;11524;50.846;4.326;2023-06-26T05:49:42;29.20;42.30
22714;DHT22;11524;50.846;4.326;2023-06-26T05:52:08;29.20;41.90
22714;DHT22;11524;50.846;4.326;2023-06-26T05:54:34;29.20;41.30
22714;DHT22;11524;50.846;4.326;2023-06-26T05:57:00;29.10;41.50
22714;DHT22;11524;50.846;4.326;2023-06-26T05:59:26;29.10;41.60
22714;DHT22;11524;50.846;4.326;2023-06-26T06:01:52;29.00;41.70
22714;DHT22;11524;50.846;4.326;2023-06-26T06:04:18;28.90;41.80
22714;DHT22;11524;50.846;4.326;2023-06-26T06:06:43;28.80;41.80
22714;DHT22;11524;50.846;4.326;2023-06-26T06:09:09;28.80;41.80
22714;DHT22;11524;50.846;4.326;2023-06-26T06:11:35;28.80;41.80
22714;DHT22;11524;50.846;4.326;2023-06-26T06:14:00;28.70;41.70
22714;DHT22;11524;50.846;4.326;2023-06-26T06:16:26;28.80;41.80
22714;DHT22;11524;50.846;4.326;2023-06-26T06:18:54;28.80;41.70
22714;DHT22;11524;50.846;4.326;2023-06-26T06:21:20;28.80;41.60
22714;DHT22;11524;50.846;4.326;2023-06-26T06:23:46;28.80;41.70
22714;DHT22;11524;50.846;4.326;2023-06-26T06:26:12;28.80;41.60
22714;DHT22;11524;50.846;4.326;2023-06-26T06:28:40;28.80;41.60
22714;DHT22;11524;50.846;4.326;2023-06-26T06:31:05;28.80;41.50
22714;DHT22;11524;50.846;4.326;2023-06-26T06:33:31;28.90;41.40
22714;DHT22;11524;50.846;4.326;2023-06-26T06:35:58;28.90;41.40
22714;DHT22;11524;50.846;4.326;2023-06-26T06:38:23;28.90;41.50
22714;DHT22;11524;50.846;4.326;2023-06-26T06:40:49;29.00;41.40
22714;DHT22;11524;50.846;4.326;2023-06-26T06:43:14;29.00;41.40
22714;DHT22;11524;50.846;4.326;2023-06-26T06:45:40;29.10;41.30
22714;DHT22;11524;50.846;4.326;2023-06-26T06:48:06;29.20;41.10
22714;DHT22;11524;50.846;4.326;2023-06-26T06:50:32;29.30;40.80
22714;DHT22;11524;50.846;4.326;2023-06-26T06:52:58;29.60;40.70
22714;DHT22;11524;50.846;4.326;2023-06-26T06:55:23;29.70;40.50
22714;DHT22;11524;50.846;4.326;2023-06-26T06:57:49;29.80;40.20
22714;DHT22;11524;50.846;4.326;2023-06-26T07:00:15;29.90;40.10
22714;DHT22;11524;50.846;4.326;2023-06-26T07:02:43;30.00;40.20
22714;DHT22;11524;50.846;4.326;2023-06-26T07:05:10;30.10;39.80
22714;DHT22;11524;50.846;4.326;2023-06-26T07:07:36;30.10;39.70
22714;DHT22;11524;50.846;4.326;2023-06-26T07:10:07;30.20;39.60
22714;DHT22;11524;50.846;4.326;2023-06-26T07:12:34;30.30;39.50
22714;DHT22;11524;50.846;4.326;2023-06-26T07:15:01;30.30;39.40
22714;DHT22;11524;50.846;4.326;2023-06-26T07:17:28;30.40;39.30
22714;DHT22;11524;50.846;4.326;2023-06-26T07:19:53;30.40;39.20
22714;DHT22;11524;50.846;4.326;2023-06-26T07:22:19;30.40;39.10
22714;DHT22;11524;50.846;4.326;2023-06-26T07:24:46;30.60;39.10
22714;DHT22;11524;50.846;4.326;2023-06-26T07:27:16;30.60;38.90
22714;DHT22;11524;50.846;4.326;2023-06-26T07:29:43;30.60;38.80
22714;DHT22;11524;50.846;4.326;2023-06-26T07:32:09;30.70;38.70
22714;DHT22;11524;50.846;4.326;2023-06-26T07:34:34;30.70;38.60
22714;DHT22;11524;50.846;4.326;2023-06-26T07:37:00;30.80;38.60
22714;DHT22;11524;50.846;4.326;2023-06-26T07:39:26;30.80;38.50
22714;DHT22;11524;50.846;4.326;2023-06-26T07:41:51;30.90;38.50
22714;DHT22;11524;50.846;4.326;2023-06-26T07:44:17;30.90;38.40
22714;DHT22;11524;50.846;4.326;2023-06-26T07:46:42;31.00;38.40
22714;DHT22;11524;50.846;4.326;2023-06-26T07:49:10;31.00;38.20
22714;DHT22;11524;50.846;4.326;2023-06-26T07:51:36;31.10;38.10
22714;DHT22;11524;50.846;4.326;2023-06-26T07:54:01;31.10;38.00
22714;DHT22;11524;50.846;4.326;2023-06-26T07:56:27;31.10;38.10
22714;DHT22;11524;50.846;4.326;2023-06-26T07:58:52;31.20;38.10
22714;DHT22;11524;50.846;4.326;2023-06-26T08:01:18;31.20;38.10
22714;DHT22;11524;50.846;4.326;2023-06-26T08:03:44;31.20;38.20
22714;DHT22;11524;50.846;4.326;2023-06-26T08:06:09;31.20;38.10
22714;DHT22;11524;50.846;4.326;2023-06-26T08:08:35;31.20;37.70
22714;DHT22;11524;50.846;4.326;2023-06-26T08:11:01;31.20;37.30
22714;DHT22;11524;50.846;4.326;2023-06-26T08:13:27;31.20;37.30
22714;DHT22;11524;50.846;4.326;2023-06-26T08:15:53;31.20;37.30
22714;DHT22;11524;50.846;4.326;2023-06-26T08:18:19;31.30;37.20
22714;DHT22;11524;50.846;4.326;2023-06-26T08:20:44;31.30;37.00
22714;DHT22;11524;50.846;4.326;2023-06-26T08:23:10;31.20;37.00
22714;DHT22;11524;50.846;4.326;2023-06-26T08:25:35;31.20;37.10
22714;DHT22;11524;50.846;4.326;2023-06-26T08:28:01;31.20;37.10
22714;DHT22;11524;50.846;4.326;2023-06-26T08:30:26;31.20;36.80
22714;DHT22;11524;50.846;4.326;2023-06-26T08:32:57;31.20;36.80
22714;DHT22;11524;50.846;4.326;2023-06-26T08:35:23;31.10;36.60
22714;DHT22;11524;50.846;4.326;2023-06-26T08:37:49;31.10;36.70
22714;DHT22;11524;50.846;4.326;2023-06-26T08:40:19;31.10;36.60
22714;DHT22;11524;50.846;4.326;2023-06-26T08:42:45;31.10;36.60
22714;DHT22;11524;50.846;4.326;2023-06-26T08:45:11;31.20;36.60
22714;DHT22;11524;50.846;4.326;2023-06-26T08:47:37;31.20;36.40
22714;DHT22;11524;50.846;4.326;2023-06-26T08:50:12;31.30;36.20
22714;DHT22;11524;50.846;4.326;2023-06-26T08:55:22;31.50;35.50
22714;DHT22;11524;50.846;4.326;2023-06-26T08:57:50;31.50;35.10
22714;DHT22;11524;50.846;4.326;2023-06-26T09:00:17;31.50;35.00
22714;DHT22;11524;50.846;4.326;2023-06-26T09:02:43;31.50;34.90
22714;DHT22;11524;50.846;4.326;2023-06-26T09:05:09;31.60;34.60
22714;DHT22;11524;50.846;4.326;2023-06-26T09:07:35;31.60;34.40
22714;DHT22;11524;50.846;4.326;2023-06-26T09:10:01;31.60;34.40
22714;DHT22;11524;50.846;4.326;2023-06-26T09:12:27;31.60;34.40
22714;DHT22;11524;50.846;4.326;2023-06-26T09:14:55;31.60;34.50
22714;DHT22;11524;50.846;4.326;2023-06-26T09:17:25;31.60;34.40
22714;DHT22;11524;50.846;4.326;2023-06-26T09:19:54;31.60;34.40
22714;DHT22;11524;50.846;4.326;2023-06-26T09:22:20;31.60;34.40
22714;DHT22;11524;50.846;4.326;2023-06-26T09:24:45;31.50;34.50
22714;DHT22;11524;50.846;4.326;2023-06-26T09:27:11;31.50;34.60
22714;DHT22;11524;50.846;4.326;2023-06-26T09:29:37;31.50;34.50
22714;DHT22;11524;50.846;4.326;2023-06-26T09:32:03;31.40;34.60
22714;DHT22;11524;50.846;4.326;2023-06-26T09:34:33;31.40;34.60
22714;DHT22;11524;50.846;4.326;2023-06-26T09:36:59;31.40;34.50
22714;DHT22;11524;50.846;4.326;2023-06-26T09:39:30;31.40;34.30
22714;DHT22;11524;50.846;4.326;2023-06-26T09:41:56;31.30;34.00
22714;DHT22;11524;50.846;4.326;2023-06-26T09:44:23;31.20;33.70
22714;DHT22;11524;50.846;4.326;2023-06-26T09:46:49;31.20;33.50
22714;DHT22;11524;50.846;4.326;2023-06-26T09:49:14;31.10;33.40
22714;DHT22;11524;50.846;4.326;2023-06-26T09:51:41;31.00;33.40
22714;DHT22;11524;50.846;4.326;2023-06-26T09:54:08;30.90;33.50
22714;DHT22;11524;50.846;4.326;2023-06-26T09:56:35;30.90;33.70
22714;DHT22;11524;50.846;4.326;2023-06-26T09:59:03;30.80;33.90
22714;DHT22;11524;50.846;4.326;2023-06-26T10:01:30;30.80;34.00
22714;DHT22;11524;50.846;4.326;2023-06-26T10:03:56;30.70;34.10
22714;DHT22;11524;50.846;4.326;2023-06-26T10:06:36;30.70;34.10
22714;DHT22;11524;50.846;4.326;2023-06-26T10:09:03;30.60;34.10
22714;DHT22;11524;50.846;4.326;2023-06-26T10:14:12;30.60;33.90
22714;DHT22;11524;50.846;4.326;2023-06-26T10:16:39;30.60;33.70
22714;DHT22;11524;50.846;4.326;2023-06-26T10:19:08;30.60;33.50
22714;DHT22;11524;50.846;4.326;2023-06-26T10:21:37;30.60;33.30
22714;DHT22;11524;50.846;4.326;2023-06-26T10:24:08;30.50;33.20
22714;DHT22;11524;50.846;4.326;2023-06-26T10:26:42;30.50;33.20
22714;DHT22;11524;50.846;4.326;2023-06-26T10:29:10;30.50;33.10
22714;DHT22;11524;50.846;4.326;2023-06-26T10:31:37;30.50;33.10
22714;DHT22;11524;50.846;4.326;2023-06-26T10:34:04;30.50;33.10
22714;DHT22;11524;50.846;4.326;2023-06-26T10:36:32;30.50;33.30
22714;DHT22;11524;50.846;4.326;2023-06-26T10:39:03;30.50;33.20
22714;DHT22;11524;50.846;4.326;2023-06-26T10:41:36;30.50;33.00
22714;DHT22;11524;50.846;4.326;2023-06-26T10:44:06;30.50;32.90
22714;DHT22;11524;50.846;4.326;2023-06-26T10:46:48;30.50;32.90
22714;DHT22;11524;50.846;4.326;2023-06-26T10:49:14;30.50;32.90
22714;DHT22;11524;50.846;4.326;2023-06-26T10:51:47;30.50;33.00
22714;DHT22;11524;50.846;4.326;2023-06-26T10:54:16;30.40;33.10
22714;DHT22;11524;50.846;4.326;2023-06-26T10:56:46;30.40;33.10
22714;DHT22;11524;50.846;4.326;2023-06-26T10:59:24;30.40;33.10
22714;DHT22;11524;50.846;4.326;2023-06-26T11:02:05;30.10;33.50
22714;DHT22;11524;50.846;4.326;2023-06-26T11:04:47;29.90;33.70
22714;DHT22;11524;50.846;4.326;2023-06-26T11:07:20;29.80;34.30
22714;DHT22;11524;50.846;4.326;2023-06-26T11:09:56;29.60;34.30
22714;DHT22;11524;50.846;4.326;2023-06-26T11:12:44;29.50;34.60
22714;DHT22;11524;50.846;4.326;2023-06-26T11:15:18;29.30;34.80
22714;DHT22;11524;50.846;4.326;2023-06-26T11:17:45;29.20;35.10
22714;DHT22;11524;50.846;4.326;2023-06-26T11:20:14;29.10;35.80
22714;DHT22;11524;50.846;4.326;2023-06-26T11:22:44;29.00;35.50
22714;DHT22;11524;50.846;4.326;2023-06-26T11:25:13;29.00;35.60
22714;DHT22;11524;50.846;4.326;2023-06-26T11:30:09;28.90;35.80
22714;DHT22;11524;50.846;4.326;2023-06-26T11:32:36;28.90;35.90
22714;DHT22;11524;50.846;4.326;2023-06-26T11:35:02;28.90;35.80
22714;DHT22;11524;50.846;4.326;2023-06-26T11:37:33;28.80;35.70
22714;DHT22;11524;50.846;4.326;2023-06-26T11:39:59;28.80;35.50
22714;DHT22;11524;50.846;4.326;2023-06-26T11:42:25;28.80;34.90
22714;DHT22;11524;50.846;4.326;2023-06-26T11:44:51;28.80;34.50
22714;DHT22;11524;50.846;4.326;2023-06-26T11:47:20;28.70;34.60
22714;DHT22;11524;50.846;4.326;2023-06-26T11:49:48;28.70;35.70
22714;DHT22;11524;50.846;4.326;2023-06-26T11:52:15;28.90;43.60
22714;DHT22;11524;50.846;4.326;2023-06-26T11:54:41;29.10;42.00
22714;DHT22;11524;50.846;4.326;2023-06-26T11:57:07;29.20;37.30
22714;DHT22;11524;50.846;4.326;2023-06-26T11:59:42;29.30;36.00
22714;DHT22;11524;50.846;4.326;2023-06-26T12:02:10;29.30;35.40
22714;DHT22;11524;50.846;4.326;2023-06-26T12:04:41;29.40;34.90
22714;DHT22;11524;50.846;4.326;2023-06-26T12:07:08;29.50;34.50
22714;DHT22;11524;50.846;4.326;2023-06-26T12:09:43;29.50;34.00
22714;DHT22;11524;50.846;4.326;2023-06-26T12:12:14;29.60;33.70
22714;DHT22;11524;50.846;4.326;2023-06-26T12:14:41;29.60;33.20
22714;DHT22;11524;50.846;4.326;2023-06-26T12:17:12;29.60;33.00
22714;DHT22;11524;50.846;4.326;2023-06-26T12:19:45;29.70;32.90
22714;DHT22;11524;50.846;4.326;2023-06-26T12:22:15;29.70;32.70
22714;DHT22;11524;50.846;4.326;2023-06-26T12:24:42;29.70;32.70
22714;DHT22;11524;50.846;4.326;2023-06-26T12:27:10;29.70;32.70
22714;DHT22;11524;50.846;4.326;2023-06-26T12:29:51;29.70;32.60
22714;DHT22;11524;50.846;4.326;2023-06-26T12:32:25;29.70;32.10
22714;DHT22;11524;50.846;4.326;2023-06-26T12:34:51;29.70;31.80
22714;DHT22;11524;50.846;4.326;2023-06-26T12:37:17;29.80;31.80
22714;DHT22;11524;50.846;4.326;2023-06-26T12:39:56;29.70;31.70
22714;DHT22;11524;50.846;4.326;2023-06-26T12:42:27;29.80;32.00
22714;DHT22;11524;50.846;4.326;2023-06-26T12:44:54;29.80;32.10
22714;DHT22;11524;50.846;4.326;2023-06-26T12:47:28;29.80;32.10
22714;DHT22;11524;50.846;4.326;2023-06-26T12:49:54;29.70;32.10
22714;DHT22;11524;50.846;4.326;2023-06-26T12:52:22;29.80;32.10
22714;DHT22;11524;50.846;4.326;2023-06-26T12:54:52;29.80;32.10
22714;DHT22;11524;50.846;4.326;2023-06-26T12:57:26;29.80;32.30
22714;DHT22;11524;50.846;4.326;2023-06-26T12:59:55;29.80;32.30
22714;DHT22;11524;50.846;4.326;2023-06-26T13:02:21;29.80;32.70
22714;DHT22;11524;50.846;4.326;2023-06-26T13:04:54;29.80;33.50
22714;DHT22;11524;50.846;4.326;2023-06-26T13:07:20;29.80;33.00
22714;DHT22;11524;50.846;4.326;2023-06-26T13:09:46;29.80;32.60
22714;DHT22;11524;50.846;4.326;2023-06-26T13:12:13;29.80;32.50
22714;DHT22;11524;50.846;4.326;2023-06-26T13:14:40;29.80;32.50
22714;DHT22;11524;50.846;4.326;2023-06-26T13:17:06;29.80;32.50
22714;DHT22;11524;50.846;4.326;2023-06-26T13:19:31;29.80;32.50
22714;DHT22;11524;50.846;4.326;2023-06-26T13:21:57;29.80;32.50
22714;DHT22;11524;50.846;4.326;2023-06-26T13:24:23;29.80;33.20
22714;DHT22;11524;50.846;4.326;2023-06-26T13:26:48;29.80;32.70
22714;DHT22;11524;50.846;4.326;2023-06-26T13:29:14;29.80;33.40
22714;DHT22;11524;50.846;4.326;2023-06-26T13:31:44;29.80;32.90
22714;DHT22;11524;50.846;4.326;2023-06-26T13:34:20;29.80;33.20
22714;DHT22;11524;50.846;4.326;2023-06-26T13:36:46;29.80;32.70
22714;DHT22;11524;50.846;4.326;2023-06-26T13:39:12;29.80;32.70
22714;DHT22;11524;50.846;4.326;2023-06-26T13:41:37;29.80;32.80
22714;DHT22;11524;50.846;4.326;2023-06-26T13:44:03;29.80;33.10
22714;DHT22;11524;50.846;4.326;2023-06-26T13:46:29;29.70;33.20
22714;DHT22;11524;50.846;4.326;2023-06-26T13:48:54;29.70;33.40
22714;DHT22;11524;50.846;4.326;2023-06-26T13:51:20;29.70;33.50
22714;DHT22;11524;50.846;4.326;2023-06-26T13:53:45;29.80;33.70
22714;DHT22;11524;50.846;4.326;2023-06-26T13:56:11;29.80;33.70
22714;DHT22;11524;50.846;4.326;2023-06-26T13:58:37;29.80;33.80
22714;DHT22;11524;50.846;4.326;2023-06-26T14:01:04;29.80;33.80
22714;DHT22;11524;50.846;4.326;2023-06-26T14:03:29;29.80;33.80
22714;DHT22;11524;50.846;4.326;2023-06-26T14:05:55;29.80;33.70
22714;DHT22;11524;50.846;4.326;2023-06-26T14:08:20;29.80;33.80
22714;DHT22;11524;50.846;4.326;2023-06-26T14:10:46;29.80;33.60
22714;DHT22;11524;50.846;4.326;2023-06-26T14:13:12;29.80;33.10
22714;DHT22;11524;50.846;4.326;2023-06-26T14:15:41;29.80;32.80
22714;DHT22;11524;50.846;4.326;2023-06-26T14:18:07;29.80;32.30
22714;DHT22;11524;50.846;4.326;2023-06-26T14:20:33;29.80;31.90
22714;DHT22;11524;50.846;4.326;2023-06-26T14:22:59;29.80;31.60
22714;DHT22;11524;50.846;4.326;2023-06-26T14:25:25;29.80;31.30
22714;DHT22;11524;50.846;4.326;2023-06-26T14:27:54;29.80;31.20
22714;DHT22;11524;50.846;4.326;2023-06-26T14:30:19;29.80;31.20
22714;DHT22;11524;50.846;4.326;2023-06-26T14:32:45;29.90;31.40
22714;DHT22;11524;50.846;4.326;2023-06-26T14:35:11;29.80;31.50
22714;DHT22;11524;50.846;4.326;2023-06-26T14:37:37;29.80;31.80
22714;DHT22;11524;50.846;4.326;2023-06-26T14:40:08;29.90;32.00
22714;DHT22;11524;50.846;4.326;2023-06-26T14:42:34;29.80;31.80
22714;DHT22;11524;50.846;4.326;2023-06-26T14:44:59;29.80;32.00
22714;DHT22;11524;50.846;4.326;2023-06-26T14:47:26;29.80;32.00
22714;DHT22;11524;50.846;4.326;2023-06-26T14:49:52;29.90;31.90
22714;DHT22;11524;50.846;4.326;2023-06-26T14:52:18;29.80;32.10
22714;DHT22;11524;50.846;4.326;2023-06-26T14:54:44;29.90;32.30
22714;DHT22;11524;50.846;4.326;2023-06-26T14:57:09;29.80;32.20
22714;DHT22;11524;50.846;4.326;2023-06-26T14:59:36;29.80;32.30
22714;DHT22;11524;50.846;4.326;2023-06-26T15:02:02;29.80;32.30
22714;DHT22;11524;50.846;4.326;2023-06-26T15:04:29;29.80;32.40
22714;DHT22;11524;50.846;4.326;2023-06-26T15:06:57;29.80;32.50
22714;DHT22;11524;50.846;4.326;2023-06-26T15:09:23;29.80;32.70
22714;DHT22;11524;50.846;4.326;2023-06-26T15:11:49;29.80;32.80
22714;DHT22;11524;50.846;4.326;2023-06-26T15:14:15;29.80;33.20
22714;DHT22;11524;50.846;4.326;2023-06-26T15:16:41;29.80;33.30
22714;DHT22;11524;50.846;4.326;2023-06-26T15:19:06;29.70;33.50
22714;DHT22;11524;50.846;4.326;2023-06-26T15:21:34;29.70;33.70
22714;DHT22;11524;50.846;4.326;2023-06-26T15:23:59;29.80;34.00
22714;DHT22;11524;50.846;4.326;2023-06-26T15:26:25;29.70;34.10
22714;DHT22;11524;50.846;4.326;2023-06-26T15:28:51;29.70;34.20
22714;DHT22;11524;50.846;4.326;2023-06-26T15:31:17;29.80;34.30
22714;DHT22;11524;50.846;4.326;2023-06-26T15:33:43;29.80;34.40
22714;DHT22;11524;50.846;4.326;2023-06-26T15:36:08;29.80;34.50
22714;DHT22;11524;50.846;4.326;2023-06-26T15:38:34;29.80;34.60
22714;DHT22;11524;50.846;4.326;2023-06-26T15:40:59;29.80;34.80
22714;DHT22;11524;50.846;4.326;2023-06-26T15:43:25;29.70;34.80